sensor_id;sensor_type;location;lat;lon;timestamp;pressure;altitude;pressure_sealevel;temperature;humidity
26531;BME280;14201;43.188;24.160;2022-12-18T00:01:27;100592.41;;;8.53;85.77
26531;BME280;14201;43.188;24.160;2022-12-18T00:03:54;100588.47;;;8.46;85.65
26531;BME280;14201;43.188;24.160;2022-12-18T00:06:20;100597.59;;;8.53;84.89
26531;BME280;14201;43.188;24.160;2022-12-18T00:08:47;100599.75;;;8.47;85.08
26531;BME280;14201;43.188;24.160;2022-12-18T00:11:21;100597.47;;;8.52;84.92
26531;BME280;14201;43.188;24.160;2022-12-18T00:13:47;100574.06;;;8.38;84.90
26531;BME280;14201;43.188;24.160;2022-12-18T00:16:16;100598.09;;;8.61;84.48
26531;BME280;14201;43.188;24.160;2022-12-18T00:18:43;100608.50;;;8.61;84.66
26531;BME280;14201;43.188;24.160;2022-12-18T00:21:11;100610.56;;;8.53;85.10
26531;BME280;14201;43.188;24.160;2022-12-18T00:23:37;100604.19;;;8.61;85.29
26531;BME280;14201;43.188;24.160;2022-12-18T00:26:06;100610.25;;;8.62;84.13
26531;BME280;14201;43.188;24.160;2022-12-18T00:28:32;100609.78;;;8.67;84.08
26531;BME280;14201;43.188;24.160;2022-12-18T00:31:09;100624.75;;;8.58;84.14
26531;BME280;14201;43.188;24.160;2022-12-18T00:33:36;100622.75;;;8.54;84.89
26531;BME280;14201;43.188;24.160;2022-12-18T00:36:09;100625.84;;;8.48;85.95
26531;BME280;14201;43.188;24.160;2022-12-18T00:38:35;100636.91;;;8.46;87.09
26531;BME280;14201;43.188;24.160;2022-12-18T00:41:02;100629.53;;;8.52;85.71
26531;BME280;14201;43.188;24.160;2022-12-18T00:43:28;100633.94;;;8.53;84.34
26531;BME280;14201;43.188;24.160;2022-12-18T00:45:53;100643.84;;;8.59;83.18
26531;BME280;14201;43.188;24.160;2022-12-18T00:48:20;100638.31;;;8.54;83.40
26531;BME280;14201;43.188;24.160;2022-12-18T00:50:47;100637.03;;;8.47;82.90
26531;BME280;14201;43.188;24.160;2022-12-18T00:53:13;100637.63;;;8.43;83.92
26531;BME280;14201;43.188;24.160;2022-12-18T00:55:40;100633.97;;;8.28;84.62
26531;BME280;14201;43.188;24.160;2022-12-18T00:58:06;100642.06;;;8.33;85.88
26531;BME280;14201;43.188;24.160;2022-12-18T01:00:32;100633.56;;;8.35;86.04
26531;BME280;14201;43.188;24.160;2022-12-18T01:02:57;100640.13;;;8.55;84.87
26531;BME280;14201;43.188;24.160;2022-12-18T01:05:23;100647.41;;;8.47;84.10
26531;BME280;14201;43.188;24.160;2022-12-18T01:07:49;100643.59;;;8.42;84.60
26531;BME280;14201;43.188;24.160;2022-12-18T01:10:14;100651.13;;;8.51;84.01
26531;BME280;14201;43.188;24.160;2022-12-18T01:12:40;100651.78;;;8.48;84.63
26531;BME280;14201;43.188;24.160;2022-12-18T01:15:07;100651.00;;;8.50;84.49
26531;BME280;14201;43.188;24.160;2022-12-18T01:17:33;100655.19;;;8.47;85.29
26531;BME280;14201;43.188;24.160;2022-12-18T01:19:59;100660.47;;;8.49;85.49
26531;BME280;14201;43.188;24.160;2022-12-18T01:22:24;100657.59;;;8.58;85.50
26531;BME280;14201;43.188;24.160;2022-12-18T01:24:50;100654.13;;;8.57;85.90
26531;BME280;14201;43.188;24.160;2022-12-18T01:27:15;100656.72;;;8.57;85.96
26531;BME280;14201;43.188;24.160;2022-12-18T01:29:41;100660.59;;;8.64;84.12
26531;BME280;14201;43.188;24.160;2022-12-18T01:32:07;100660.59;;;8.64;83.06
26531;BME280;14201;43.188;24.160;2022-12-18T01:34:35;100660.31;;;8.59;83.13
26531;BME280;14201;43.188;24.160;2022-12-18T01:37:02;100656.19;;;8.50;84.45
26531;BME280;14201;43.188;24.160;2022-12-18T01:39:28;100655.91;;;8.58;83.81
26531;BME280;14201;43.188;24.160;2022-12-18T01:41:54;100668.00;;;8.58;83.19
26531;BME280;14201;43.188;24.160;2022-12-18T01:47:14;100667.47;;;8.50;82.79
26531;BME280;14201;43.188;24.160;2022-12-18T01:49:40;100671.25;;;8.42;83.99
26531;BME280;14201;43.188;24.160;2022-12-18T01:52:06;100669.56;;;8.42;84.15
26531;BME280;14201;43.188;24.160;2022-12-18T01:54:32;100672.41;;;8.34;84.64
26531;BME280;14201;43.188;24.160;2022-12-18T01:56:57;100667.59;;;8.26;84.89
26531;BME280;14201;43.188;24.160;2022-12-18T01:59:23;100677.97;;;8.26;85.16
26531;BME280;14201;43.188;24.160;2022-12-18T02:01:48;100682.94;;;8.23;85.56
26531;BME280;14201;43.188;24.160;2022-12-18T02:04:19;100681.16;;;8.22;86.22
26531;BME280;14201;43.188;24.160;2022-12-18T02:06:45;100682.75;;;8.20;86.18
26531;BME280;14201;43.188;24.160;2022-12-18T02:09:12;100686.34;;;8.22;85.89
26531;BME280;14201;43.188;24.160;2022-12-18T02:11:40;100694.91;;;8.21;86.24
26531;BME280;14201;43.188;24.160;2022-12-18T02:16:59;100706.13;;;8.20;86.28
26531;BME280;14201;43.188;24.160;2022-12-18T02:22:00;100711.53;;;8.12;84.93
26531;BME280;14201;43.188;24.160;2022-12-18T02:24:32;100710.44;;;8.08;84.32
26531;BME280;14201;43.188;24.160;2022-12-18T02:26:59;100707.78;;;7.95;84.83
26531;BME280;14201;43.188;24.160;2022-12-18T02:29:27;100716.06;;;7.89;84.98
26531;BME280;14201;43.188;24.160;2022-12-18T02:31:56;100723.91;;;7.91;83.77
26531;BME280;14201;43.188;24.160;2022-12-18T02:34:23;100723.84;;;7.89;84.10
26531;BME280;14201;43.188;24.160;2022-12-18T02:36:51;100737.28;;;7.83;83.70
26531;BME280;14201;43.188;24.160;2022-12-18T02:39:18;100733.19;;;7.75;84.50
26531;BME280;14201;43.188;24.160;2022-12-18T02:41:45;100739.78;;;7.70;84.33
26531;BME280;14201;43.188;24.160;2022-12-18T02:44:12;100736.97;;;7.55;84.55
26531;BME280;14201;43.188;24.160;2022-12-18T02:46:40;100749.03;;;7.66;84.62
26531;BME280;14201;43.188;24.160;2022-12-18T02:55:45;100749.81;;;7.65;84.52
26531;BME280;14201;43.188;24.160;2022-12-18T02:57:50;100753.78;;;7.60;83.70
26531;BME280;14201;43.188;24.160;2022-12-18T03:00:30;100755.25;;;7.57;83.78
26531;BME280;14201;43.188;24.160;2022-12-18T03:03:11;100759.19;;;7.52;83.85
26531;BME280;14201;43.188;24.160;2022-12-18T03:05:48;100758.75;;;7.45;83.61
26531;BME280;14201;43.188;24.160;2022-12-18T03:08:28;100766.84;;;7.38;84.13
26531;BME280;14201;43.188;24.160;2022-12-18T03:10:58;100785.00;;;7.38;84.02
26531;BME280;14201;43.188;24.160;2022-12-18T03:13:30;100777.44;;;7.41;83.75
26531;BME280;14201;43.188;24.160;2022-12-18T03:15:59;100789.72;;;7.32;83.91
26531;BME280;14201;43.188;24.160;2022-12-18T03:18:53;100790.19;;;7.38;83.29
26531;BME280;14201;43.188;24.160;2022-12-18T03:21:25;100784.91;;;7.37;83.18
26531;BME280;14201;43.188;24.160;2022-12-18T03:23:54;100795.34;;;7.38;83.13
26531;BME280;14201;43.188;24.160;2022-12-18T03:26:24;100803.25;;;7.40;83.54
26531;BME280;14201;43.188;24.160;2022-12-18T03:28:57;100792.56;;;7.35;83.01
26531;BME280;14201;43.188;24.160;2022-12-18T03:31:26;100803.94;;;7.37;83.53
26531;BME280;14201;43.188;24.160;2022-12-18T03:33:55;100806.75;;;7.40;82.93
26531;BME280;14201;43.188;24.160;2022-12-18T03:36:23;100805.16;;;7.42;82.14
26531;BME280;14201;43.188;24.160;2022-12-18T03:38:49;100780.25;;;7.33;81.67
26531;BME280;14201;43.188;24.160;2022-12-18T03:43:50;100811.72;;;7.37;81.64
26531;BME280;14201;43.188;24.160;2022-12-18T03:49:14;100830.31;;;7.32;82.31
26531;BME280;14201;43.188;24.160;2022-12-18T03:52:11;100813.03;;;7.20;82.25
26531;BME280;14201;43.188;24.160;2022-12-18T03:54:39;100829.28;;;7.29;82.33
26531;BME280;14201;43.188;24.160;2022-12-18T03:57:11;100829.28;;;7.29;82.87
26531;BME280;14201;43.188;24.160;2022-12-18T03:59:39;100824.41;;;7.22;82.29
26531;BME280;14201;43.188;24.160;2022-12-18T04:02:07;100827.00;;;7.22;82.62
26531;BME280;14201;43.188;24.160;2022-12-18T04:04:36;100832.44;;;7.25;82.70
26531;BME280;14201;43.188;24.160;2022-12-18T04:07:03;100839.41;;;7.26;82.83
26531;BME280;14201;43.188;24.160;2022-12-18T04:09:31;100823.66;;;7.35;81.77
26531;BME280;14201;43.188;24.160;2022-12-18T04:11:57;100825.00;;;7.42;81.19
26531;BME280;14201;43.188;24.160;2022-12-18T04:14:22;100847.09;;;7.37;82.58
26531;BME280;14201;43.188;24.160;2022-12-18T04:16:48;100847.75;;;7.22;81.43
26531;BME280;14201;43.188;24.160;2022-12-18T04:19:13;100845.47;;;7.15;82.40
26531;BME280;14201;43.188;24.160;2022-12-18T04:21:39;100850.91;;;7.18;82.15
26531;BME280;14201;43.188;24.160;2022-12-18T04:24:05;100853.47;;;7.18;82.78
26531;BME280;14201;43.188;24.160;2022-12-18T04:26:30;100859.34;;;7.16;83.26
26531;BME280;14201;43.188;24.160;2022-12-18T04:28:56;100863.41;;;7.12;83.64
26531;BME280;14201;43.188;24.160;2022-12-18T04:31:22;100868.91;;;7.17;82.77
26531;BME280;14201;43.188;24.160;2022-12-18T04:33:47;100875.53;;;7.13;83.82
26531;BME280;14201;43.188;24.160;2022-12-18T04:36:13;100875.22;;;7.20;83.05
26531;BME280;14201;43.188;24.160;2022-12-18T04:38:38;100878.84;;;7.22;82.78
26531;BME280;14201;43.188;24.160;2022-12-18T04:41:04;100879.06;;;7.14;83.24
26531;BME280;14201;43.188;24.160;2022-12-18T04:43:29;100893.94;;;7.28;82.96
26531;BME280;14201;43.188;24.160;2022-12-18T04:46:05;100888.28;;;7.10;82.98
26531;BME280;14201;43.188;24.160;2022-12-18T04:48:31;100866.25;;;6.93;83.71
26531;BME280;14201;43.188;24.160;2022-12-18T04:50:57;100893.44;;;6.98;84.99
26531;BME280;14201;43.188;24.160;2022-12-18T04:53:23;100891.44;;;6.84;85.42
26531;BME280;14201;43.188;24.160;2022-12-18T04:55:48;100887.84;;;6.82;86.01
26531;BME280;14201;43.188;24.160;2022-12-18T04:58:13;100887.91;;;6.72;87.13
26531;BME280;14201;43.188;24.160;2022-12-18T05:00:39;100889.34;;;6.68;87.39
26531;BME280;14201;43.188;24.160;2022-12-18T05:03:04;100891.31;;;6.82;87.54
26531;BME280;14201;43.188;24.160;2022-12-18T05:05:30;100890.25;;;6.68;87.55
26531;BME280;14201;43.188;24.160;2022-12-18T05:07:55;100896.53;;;6.60;88.77
26531;BME280;14201;43.188;24.160;2022-12-18T05:10:21;100898.94;;;6.69;88.98
26531;BME280;14201;43.188;24.160;2022-12-18T05:12:46;100896.44;;;6.70;89.12
26531;BME280;14201;43.188;24.160;2022-12-18T05:15:29;100897.59;;;6.74;88.80
26531;BME280;14201;43.188;24.160;2022-12-18T05:17:56;100902.44;;;6.69;89.39
26531;BME280;14201;43.188;24.160;2022-12-18T05:20:22;100898.72;;;6.44;90.54
26531;BME280;14201;43.188;24.160;2022-12-18T05:22:48;100889.72;;;6.28;92.04
26531;BME280;14201;43.188;24.160;2022-12-18T05:25:13;100917.66;;;6.33;93.21
26531;BME280;14201;43.188;24.160;2022-12-18T05:27:39;100925.19;;;6.19;94.31
26531;BME280;14201;43.188;24.160;2022-12-18T05:30:05;100922.25;;;6.15;95.36
26531;BME280;14201;43.188;24.160;2022-12-18T05:32:30;100920.00;;;5.97;96.07
26531;BME280;14201;43.188;24.160;2022-12-18T05:34:56;100928.34;;;5.95;97.75
26531;BME280;14201;43.188;24.160;2022-12-18T05:37:22;100941.03;;;5.91;98.10
26531;BME280;14201;43.188;24.160;2022-12-18T05:39:48;100931.38;;;5.79;98.75
26531;BME280;14201;43.188;24.160;2022-12-18T05:42:14;100941.03;;;6.02;97.87
26531;BME280;14201;43.188;24.160;2022-12-18T05:44:39;100947.50;;;5.97;98.83
26531;BME280;14201;43.188;24.160;2022-12-18T05:47:05;100949.50;;;6.21;96.75
26531;BME280;14201;43.188;24.160;2022-12-18T05:49:31;100954.28;;;6.27;96.47
26531;BME280;14201;43.188;24.160;2022-12-18T05:51:56;100947.91;;;6.34;96.48
26531;BME280;14201;43.188;24.160;2022-12-18T05:54:22;100947.88;;;6.44;94.95
26531;BME280;14201;43.188;24.160;2022-12-18T05:56:48;100949.13;;;6.49;94.92
26531;BME280;14201;43.188;24.160;2022-12-18T05:59:13;100950.88;;;6.60;94.53
26531;BME280;14201;43.188;24.160;2022-12-18T06:01:39;100942.09;;;6.58;94.80
26531;BME280;14201;43.188;24.160;2022-12-18T06:04:04;100963.91;;;6.72;93.81
26531;BME280;14201;43.188;24.160;2022-12-18T06:06:30;100955.66;;;6.66;93.99
26531;BME280;14201;43.188;24.160;2022-12-18T06:08:56;100962.03;;;6.59;95.14
26531;BME280;14201;43.188;24.160;2022-12-18T06:11:24;100969.25;;;6.63;95.27
26531;BME280;14201;43.188;24.160;2022-12-18T06:13:55;100970.44;;;6.57;95.74
26531;BME280;14201;43.188;24.160;2022-12-18T06:16:21;100968.34;;;6.63;95.82
26531;BME280;14201;43.188;24.160;2022-12-18T06:18:46;100966.69;;;6.63;95.79
26531;BME280;14201;43.188;24.160;2022-12-18T06:21:12;100976.34;;;6.66;96.17
26531;BME280;14201;43.188;24.160;2022-12-18T06:23:38;100983.44;;;6.79;96.30
26531;BME280;14201;43.188;24.160;2022-12-18T06:26:11;100987.25;;;6.84;96.06
26531;BME280;14201;43.188;24.160;2022-12-18T06:28:38;100986.84;;;6.89;94.56
26531;BME280;14201;43.188;24.160;2022-12-18T06:31:04;100996.25;;;6.99;94.20
26531;BME280;14201;43.188;24.160;2022-12-18T06:33:31;100990.28;;;7.00;94.34
26531;BME280;14201;43.188;24.160;2022-12-18T06:36:01;101000.66;;;7.00;94.46
26531;BME280;14201;43.188;24.160;2022-12-18T06:38:27;101004.06;;;7.11;94.15
26531;BME280;14201;43.188;24.160;2022-12-18T06:40:53;101009.44;;;7.02;94.50
26531;BME280;14201;43.188;24.160;2022-12-18T06:43:19;101004.47;;;7.05;94.77
26531;BME280;14201;43.188;24.160;2022-12-18T06:45:44;101008.41;;;7.22;93.13
26531;BME280;14201;43.188;24.160;2022-12-18T06:48:09;100993.03;;;6.92;94.15
26531;BME280;14201;43.188;24.160;2022-12-18T06:50:35;101023.84;;;6.99;95.70
26531;BME280;14201;43.188;24.160;2022-12-18T06:53:00;101021.66;;;7.15;95.21
26531;BME280;14201;43.188;24.160;2022-12-18T06:55:26;101029.81;;;7.20;95.00
26531;BME280;14201;43.188;24.160;2022-12-18T06:57:52;101023.59;;;7.18;94.39
26531;BME280;14201;43.188;24.160;2022-12-18T07:00:17;101019.97;;;6.94;95.66
26531;BME280;14201;43.188;24.160;2022-12-18T07:02:43;101018.06;;;6.91;96.03
26531;BME280;14201;43.188;24.160;2022-12-18T07:05:09;101025.72;;;7.12;96.46
26531;BME280;14201;43.188;24.160;2022-12-18T07:07:34;101030.09;;;7.13;95.95
26531;BME280;14201;43.188;24.160;2022-12-18T07:10:00;101031.66;;;7.10;96.19
26531;BME280;14201;43.188;24.160;2022-12-18T07:12:28;101038.84;;;7.03;96.35
26531;BME280;14201;43.188;24.160;2022-12-18T07:14:54;101026.78;;;7.03;96.74
26531;BME280;14201;43.188;24.160;2022-12-18T07:17:19;101032.94;;;7.16;97.05
26531;BME280;14201;43.188;24.160;2022-12-18T07:19:45;101024.84;;;7.23;96.46
26531;BME280;14201;43.188;24.160;2022-12-18T07:22:10;101037.28;;;7.27;96.58
26531;BME280;14201;43.188;24.160;2022-12-18T07:24:36;101028.22;;;7.22;96.41
26531;BME280;14201;43.188;24.160;2022-12-18T07:27:01;101037.06;;;7.36;97.18
26531;BME280;14201;43.188;24.160;2022-12-18T07:29:27;101042.09;;;7.44;96.82
26531;BME280;14201;43.188;24.160;2022-12-18T07:31:52;101040.22;;;7.32;96.19
26531;BME280;14201;43.188;24.160;2022-12-18T07:34:18;101052.94;;;7.28;97.20
26531;BME280;14201;43.188;24.160;2022-12-18T07:36:44;101044.09;;;7.37;97.88
26531;BME280;14201;43.188;24.160;2022-12-18T07:39:10;101039.59;;;7.46;96.12
26531;BME280;14201;43.188;24.160;2022-12-18T07:41:36;101046.69;;;7.37;97.35
26531;BME280;14201;43.188;24.160;2022-12-18T07:44:02;101049.63;;;7.41;96.48
26531;BME280;14201;43.188;24.160;2022-12-18T07:46:27;101044.44;;;7.41;96.49
26531;BME280;14201;43.188;24.160;2022-12-18T07:48:53;101037.97;;;7.36;97.18
26531;BME280;14201;43.188;24.160;2022-12-18T07:51:19;101031.28;;;7.28;97.05
26531;BME280;14201;43.188;24.160;2022-12-18T07:53:45;101052.59;;;7.24;98.16
26531;BME280;14201;43.188;24.160;2022-12-18T07:56:11;101054.25;;;7.45;97.49
26531;BME280;14201;43.188;24.160;2022-12-18T07:58:37;101067.06;;;7.66;97.27
26531;BME280;14201;43.188;24.160;2022-12-18T08:01:08;101071.47;;;7.67;96.86
26531;BME280;14201;43.188;24.160;2022-12-18T08:03:35;101071.88;;;7.61;96.71
26531;BME280;14201;43.188;24.160;2022-12-18T08:06:02;101079.81;;;7.75;95.95
26531;BME280;14201;43.188;24.160;2022-12-18T08:08:28;101076.03;;;7.81;95.81
26531;BME280;14201;43.188;24.160;2022-12-18T08:10:54;101066.84;;;8.08;96.13
26531;BME280;14201;43.188;24.160;2022-12-18T08:13:20;101078.88;;;8.08;94.48
26531;BME280;14201;43.188;24.160;2022-12-18T08:15:46;101082.19;;;8.29;93.72
26531;BME280;14201;43.188;24.160;2022-12-18T08:18:12;101081.31;;;8.28;92.85
26531;BME280;14201;43.188;24.160;2022-12-18T08:20:37;101085.16;;;8.34;92.21
26531;BME280;14201;43.188;24.160;2022-12-18T08:23:03;101080.84;;;8.34;90.15
26531;BME280;14201;43.188;24.160;2022-12-18T08:25:28;101086.78;;;8.43;91.38
26531;BME280;14201;43.188;24.160;2022-12-18T08:27:54;101084.06;;;8.54;87.64
26531;BME280;14201;43.188;24.160;2022-12-18T08:30:21;101093.88;;;8.70;86.85
26531;BME280;14201;43.188;24.160;2022-12-18T08:32:51;101085.63;;;8.75;83.91
26531;BME280;14201;43.188;24.160;2022-12-18T08:35:18;101092.41;;;8.85;83.97
26531;BME280;14201;43.188;24.160;2022-12-18T08:37:43;101069.16;;;8.75;84.13
26531;BME280;14201;43.188;24.160;2022-12-18T08:40:09;101103.84;;;9.24;80.35
26531;BME280;14201;43.188;24.160;2022-12-18T08:42:35;101101.22;;;9.36;78.03
26531;BME280;14201;43.188;24.160;2022-12-18T08:45:19;101100.97;;;9.44;76.38
26531;BME280;14201;43.188;24.160;2022-12-18T08:47:45;101109.03;;;9.61;69.73
26531;BME280;14201;43.188;24.160;2022-12-18T08:50:10;101114.84;;;9.57;69.57
26531;BME280;14201;43.188;24.160;2022-12-18T08:52:37;101116.59;;;9.70;68.27
26531;BME280;14201;43.188;24.160;2022-12-18T08:55:03;101124.84;;;9.76;58.56
26531;BME280;14201;43.188;24.160;2022-12-18T08:57:29;101117.91;;;9.76;64.95
26531;BME280;14201;43.188;24.160;2022-12-18T08:59:54;101118.50;;;9.97;60.76
26531;BME280;14201;43.188;24.160;2022-12-18T09:02:20;101121.94;;;10.10;59.58
26531;BME280;14201;43.188;24.160;2022-12-18T09:04:47;101123.38;;;10.18;60.25
26531;BME280;14201;43.188;24.160;2022-12-18T09:07:13;101130.44;;;10.07;62.60
26531;BME280;14201;43.188;24.160;2022-12-18T09:09:38;101127.66;;;10.17;62.93
26531;BME280;14201;43.188;24.160;2022-12-18T09:12:04;101136.69;;;10.22;60.52
26531;BME280;14201;43.188;24.160;2022-12-18T09:14:29;101134.19;;;10.24;55.22
26531;BME280;14201;43.188;24.160;2022-12-18T09:16:55;101138.94;;;10.30;55.63
26531;BME280;14201;43.188;24.160;2022-12-18T09:19:20;101129.28;;;10.29;55.79
26531;BME280;14201;43.188;24.160;2022-12-18T09:21:46;101138.94;;;10.30;55.52
26531;BME280;14201;43.188;24.160;2022-12-18T09:24:12;101144.59;;;10.36;54.19
26531;BME280;14201;43.188;24.160;2022-12-18T09:26:38;101136.53;;;10.33;50.46
26531;BME280;14201;43.188;24.160;2022-12-18T09:29:04;101136.66;;;10.34;53.20
26531;BME280;14201;43.188;24.160;2022-12-18T09:31:32;101134.88;;;10.33;54.49
26531;BME280;14201;43.188;24.160;2022-12-18T09:33:58;101143.16;;;10.41;52.62
26531;BME280;14201;43.188;24.160;2022-12-18T09:36:24;101147.00;;;10.46;51.21
26531;BME280;14201;43.188;24.160;2022-12-18T09:38:49;101137.78;;;10.51;49.22
26531;BME280;14201;43.188;24.160;2022-12-18T09:43:52;101143.09;;;10.39;49.54
26531;BME280;14201;43.188;24.160;2022-12-18T09:46:31;101149.09;;;10.38;49.57
26531;BME280;14201;43.188;24.160;2022-12-18T09:49:01;101146.38;;;10.37;50.20
26531;BME280;14201;43.188;24.160;2022-12-18T09:51:40;101143.97;;;10.40;49.72
26531;BME280;14201;43.188;24.160;2022-12-18T09:54:18;101143.50;;;10.20;48.48
26531;BME280;14201;43.188;24.160;2022-12-18T09:56:45;101152.38;;;10.11;48.21
26531;BME280;14201;43.188;24.160;2022-12-18T09:59:21;101160.97;;;10.10;47.37
26531;BME280;14201;43.188;24.160;2022-12-18T10:01:48;101166.66;;;10.04;47.89
26531;BME280;14201;43.188;24.160;2022-12-18T10:04:14;101160.94;;;9.96;48.56
26531;BME280;14201;43.188;24.160;2022-12-18T10:06:49;101170.81;;;9.89;49.80
26531;BME280;14201;43.188;24.160;2022-12-18T10:09:36;101168.78;;;9.84;49.50
26531;BME280;14201;43.188;24.160;2022-12-18T10:15:01;101172.09;;;9.82;49.15
26531;BME280;14201;43.188;24.160;2022-12-18T10:20:45;101170.91;;;9.65;48.58
26531;BME280;14201;43.188;24.160;2022-12-18T10:23:37;101175.09;;;9.63;47.73
26531;BME280;14201;43.188;24.160;2022-12-18T10:26:06;101174.44;;;9.54;48.35
26531;BME280;14201;43.188;24.160;2022-12-18T10:28:35;101167.66;;;9.44;48.55
26531;BME280;14201;43.188;24.160;2022-12-18T10:31:01;101169.63;;;9.35;48.97
26531;BME280;14201;43.188;24.160;2022-12-18T10:33:31;101172.31;;;9.36;48.65
26531;BME280;14201;43.188;24.160;2022-12-18T10:35:58;101168.72;;;9.34;49.30
26531;BME280;14201;43.188;24.160;2022-12-18T10:38:31;101173.25;;;9.37;48.36
26531;BME280;14201;43.188;24.160;2022-12-18T10:41:03;101169.53;;;9.33;48.74
26531;BME280;14201;43.188;24.160;2022-12-18T10:46:17;101173.00;;;9.45;48.03
26531;BME280;14201;43.188;24.160;2022-12-18T10:51:39;101170.19;;;9.42;49.00
26531;BME280;14201;43.188;24.160;2022-12-18T10:54:20;101169.19;;;9.40;49.60
26531;BME280;14201;43.188;24.160;2022-12-18T10:56:46;101164.19;;;9.43;49.55
26531;BME280;14201;43.188;24.160;2022-12-18T10:59:17;101165.63;;;9.52;48.91
26531;BME280;14201;43.188;24.160;2022-12-18T11:01:54;101161.22;;;9.51;48.76
26531;BME280;14201;43.188;24.160;2022-12-18T11:04:23;101172.88;;;9.56;49.13
26531;BME280;14201;43.188;24.160;2022-12-18T11:07:04;101167.28;;;9.63;47.99
26531;BME280;14201;43.188;24.160;2022-12-18T11:09:32;101168.22;;;9.52;47.91
26531;BME280;14201;43.188;24.160;2022-12-18T11:14:45;101171.84;;;9.42;48.67
26531;BME280;14201;43.188;24.160;2022-12-18T11:19:59;101170.84;;;9.40;47.99
26531;BME280;14201;43.188;24.160;2022-12-18T11:22:33;101169.19;;;9.40;49.36
26531;BME280;14201;43.188;24.160;2022-12-18T11:27:37;101178.41;;;9.49;48.71
26531;BME280;14201;43.188;24.160;2022-12-18T11:32:43;101176.41;;;9.44;49.65
26531;BME280;14201;43.188;24.160;2022-12-18T11:38:36;101189.72;;;9.49;47.19
26531;BME280;14201;43.188;24.160;2022-12-18T11:44:30;101178.00;;;9.42;49.04
26531;BME280;14201;43.188;24.160;2022-12-18T11:50:14;101181.81;;;9.48;50.54
26531;BME280;14201;43.188;24.160;2022-12-18T11:52:41;101182.22;;;9.54;49.67
26531;BME280;14201;43.188;24.160;2022-12-18T11:55:37;101178.84;;;9.55;49.95
26531;BME280;14201;43.188;24.160;2022-12-18T11:58:37;101180.28;;;9.63;47.68
26531;BME280;14201;43.188;24.160;2022-12-18T12:09:45;101182.91;;;9.63;48.95
26531;BME280;14201;43.188;24.160;2022-12-18T12:20:58;101170.00;;;9.64;51.80
26531;BME280;14201;43.188;24.160;2022-12-18T12:23:37;101169.78;;;9.61;51.89
26531;BME280;14201;43.188;24.160;2022-12-18T12:26:12;101164.84;;;9.53;50.71
26531;BME280;14201;43.188;24.160;2022-12-18T12:31:15;101176.97;;;9.40;51.54
26531;BME280;14201;43.188;24.160;2022-12-18T12:34:04;101179.56;;;9.40;52.04
26531;BME280;14201;43.188;24.160;2022-12-18T12:37:01;101177.19;;;9.43;52.19
26531;BME280;14201;43.188;24.160;2022-12-18T12:39:35;101195.41;;;9.32;51.98
26531;BME280;14201;43.188;24.160;2022-12-18T12:42:04;101194.72;;;9.22;53.09
26531;BME280;14201;43.188;24.160;2022-12-18T12:44:55;101204.34;;;9.23;51.92
26531;BME280;14201;43.188;24.160;2022-12-18T12:47:32;101202.06;;;9.28;51.36
26531;BME280;14201;43.188;24.160;2022-12-18T12:49:59;101203.78;;;9.16;52.05
26531;BME280;14201;43.188;24.160;2022-12-18T12:52:31;101194.28;;;9.16;52.54
26531;BME280;14201;43.188;24.160;2022-12-18T12:54:57;101197.78;;;9.17;52.67
26531;BME280;14201;43.188;24.160;2022-12-18T12:57:34;101204.13;;;9.09;53.67
26531;BME280;14201;43.188;24.160;2022-12-18T13:00:04;101220.53;;;9.19;54.13
26531;BME280;14201;43.188;24.160;2022-12-18T13:02:36;101218.25;;;9.24;53.39
26531;BME280;14201;43.188;24.160;2022-12-18T13:08:02;101232.94;;;9.23;52.72
26531;BME280;14201;43.188;24.160;2022-12-18T13:10:34;101228.53;;;9.22;53.27
26531;BME280;14201;43.188;24.160;2022-12-18T13:13:07;101231.13;;;9.22;53.86
26531;BME280;14201;43.188;24.160;2022-12-18T13:15:44;101221.75;;;9.13;52.50
26531;BME280;14201;43.188;24.160;2022-12-18T13:23:36;101229.53;;;9.13;53.70
26531;BME280;14201;43.188;24.160;2022-12-18T13:31:02;101227.31;;;9.05;53.92
26531;BME280;14201;43.188;24.160;2022-12-18T13:36:02;101238.47;;;9.16;53.99
26531;BME280;14201;43.188;24.160;2022-12-18T13:38:36;101239.16;;;9.14;53.86
26531;BME280;14201;43.188;24.160;2022-12-18T13:41:10;101238.59;;;9.06;52.82
26531;BME280;14201;43.188;24.160;2022-12-18T13:43:48;101248.44;;;8.98;52.84
26531;BME280;14201;43.188;24.160;2022-12-18T13:49:00;101264.78;;;8.97;52.56
26531;BME280;14201;43.188;24.160;2022-12-18T13:51:27;101263.09;;;8.86;52.90
26531;BME280;14201;43.188;24.160;2022-12-18T13:56:44;101266.13;;;8.69;55.01
26531;BME280;14201;43.188;24.160;2022-12-18T13:59:17;101269.41;;;8.78;55.08
26531;BME280;14201;43.188;24.160;2022-12-18T14:01:58;101262.94;;;8.61;56.28
26531;BME280;14201;43.188;24.160;2022-12-18T14:04:28;101265.06;;;8.66;56.56
26531;BME280;14201;43.188;24.160;2022-12-18T14:07:02;101278.28;;;8.58;55.03
26531;BME280;14201;43.188;24.160;2022-12-18T14:09:33;101264.41;;;8.57;55.05
26531;BME280;14201;43.188;24.160;2022-12-18T14:12:00;101273.25;;;8.49;54.32
26531;BME280;14201;43.188;24.160;2022-12-18T14:14:47;101269.44;;;8.44;54.41
26531;BME280;14201;43.188;24.160;2022-12-18T14:17:14;101274.63;;;8.44;54.71
26531;BME280;14201;43.188;24.160;2022-12-18T14:19:48;101272.78;;;8.43;54.86
26531;BME280;14201;43.188;24.160;2022-12-18T14:22:23;101283.81;;;8.40;55.36
26531;BME280;14201;43.188;24.160;2022-12-18T14:27:43;101285.53;;;8.40;55.25
26531;BME280;14201;43.188;24.160;2022-12-18T14:30:37;101271.94;;;8.32;54.73
26531;BME280;14201;43.188;24.160;2022-12-18T14:33:13;101296.97;;;8.42;54.43
26531;BME280;14201;43.188;24.160;2022-12-18T14:36:02;101282.88;;;8.28;54.01
26531;BME280;14201;43.188;24.160;2022-12-18T14:38:35;101303.66;;;8.28;54.46